createdAt,value
2022-10-14T00:00:05.741Z,20.17
2022-10-14T00:02:32.274Z,20.17
2022-10-14T00:04:58.757Z,18.52
2022-10-14T00:07:25.263Z,20.35
2022-10-14T00:09:51.740Z,20.30
2022-10-14T00:12:18.168Z,22.13
2022-10-14T00:14:53.121Z,20.52
2022-10-14T00:17:19.755Z,24.23
2022-10-14T00:19:46.480Z,21.33
2022-10-14T00:22:13.013Z,18.52
2022-10-14T00:24:39.652Z,19.40
2022-10-14T00:27:06.147Z,25.33
2022-10-14T00:29:32.780Z,21.52
2022-10-14T00:31:59.291Z,21.25
2022-10-14T00:34:25.887Z,18.27
2022-10-14T00:36:52.469Z,21.08
2022-10-14T00:39:19.239Z,19.63
2022-10-14T00:41:45.711Z,20.83
2022-10-14T00:44:16.378Z,18.45
2022-10-14T00:46:47.449Z,15.73
2022-10-14T00:49:17.463Z,17.92
2022-10-14T00:51:48.376Z,17.20
2022-10-14T00:54:16.905Z,17.15
2022-10-14T00:56:44.540Z,23.38
2022-10-14T00:59:11.894Z,22.15
2022-10-14T01:01:38.534Z,19.65
2022-10-14T01:04:05.102Z,18.88
2022-10-14T01:07:08.550Z,18.73
2022-10-14T01:09:45.018Z,18.90
2022-10-14T01:12:29.033Z,17.10
2022-10-14T01:15:08.073Z,20.15
2022-10-14T01:17:58.637Z,17.23
2022-10-14T01:20:41.815Z,19.80
2022-10-14T01:23:36.034Z,19.20
2022-10-14T01:26:25.217Z,14.75
2022-10-14T01:29:12.831Z,18.65
2022-10-14T01:31:45.256Z,19.73
2022-10-14T01:34:14.345Z,15.38
2022-10-14T01:36:56.309Z,14.45
2022-10-14T01:39:27.961Z,19.52
2022-10-14T01:42:13.303Z,18.52
2022-10-14T01:44:44.541Z,24.08
2022-10-14T01:47:18.025Z,19.80
2022-10-14T01:49:49.270Z,17.95
2022-10-14T01:52:21.300Z,16.92
2022-10-14T01:54:53.549Z,24.23
2022-10-14T01:57:23.750Z,22.85
2022-10-14T01:59:52.457Z,16.63
2022-10-14T02:02:19.921Z,17.00
2022-10-14T02:04:46.712Z,19.05
2022-10-14T02:07:36.106Z,15.57
2022-10-14T02:10:23.839Z,18.42
2022-10-14T02:13:18.750Z,17.23
2022-10-14T02:15:56.131Z,17.63
2022-10-14T02:18:31.956Z,19.95
2022-10-14T02:21:10.468Z,18.23
2022-10-14T02:23:41.960Z,18.25
2022-10-14T02:26:08.840Z,19.58
2022-10-14T02:28:37.299Z,16.90
2022-10-14T02:31:06.470Z,18.77
2022-10-14T02:33:54.284Z,19.88
2022-10-14T02:36:22.996Z,19.73
2022-10-14T02:38:50.529Z,19.10
2022-10-14T02:41:19.822Z,16.88
2022-10-14T02:43:47.546Z,18.05
2022-10-14T02:46:14.043Z,14.30
2022-10-14T02:48:43.548Z,19.75
2022-10-14T02:51:10.028Z,16.58
2022-10-14T02:53:36.623Z,17.55
2022-10-14T02:56:04.057Z,18.65
2022-10-14T02:58:30.507Z,19.00
2022-10-14T03:00:56.957Z,16.20
2022-10-14T03:03:23.459Z,16.00
2022-10-14T03:05:49.921Z,18.52
2022-10-14T03:08:16.862Z,18.10
2022-10-14T03:10:46.580Z,15.38
2022-10-14T03:13:13.107Z,15.07
2022-10-14T03:15:39.824Z,22.40
2022-10-14T03:18:10.910Z,18.10
2022-10-14T03:20:37.814Z,14.55
2022-10-14T03:23:04.309Z,20.58
2022-10-14T03:25:30.777Z,18.80
2022-10-14T03:27:57.244Z,16.88
2022-10-14T03:30:23.743Z,19.27
2022-10-14T03:32:50.225Z,15.35
2022-10-14T03:35:16.742Z,19.55
2022-10-14T03:37:43.191Z,15.43
2022-10-14T03:40:13.521Z,14.43
2022-10-14T03:42:40.995Z,18.40
2022-10-14T03:45:08.588Z,17.98
2022-10-14T03:47:35.334Z,15.73
2022-10-14T03:50:03.026Z,13.75
2022-10-14T03:52:29.449Z,15.68
2022-10-14T03:54:55.908Z,15.52
2022-10-14T03:57:22.492Z,21.25
2022-10-14T03:59:49.160Z,16.15
2022-10-14T04:02:17.336Z,14.48
2022-10-14T04:04:43.879Z,16.08
2022-10-14T04:07:10.321Z,14.15
2022-10-14T04:09:36.813Z,18.05
2022-10-14T04:12:03.313Z,18.42
2022-10-14T04:14:29.812Z,18.35
2022-10-14T04:16:59.734Z,15.85
2022-10-14T04:19:27.081Z,17.92
2022-10-14T04:21:53.529Z,14.32
2022-10-14T04:24:20.122Z,19.00
2022-10-14T04:26:46.561Z,19.38
2022-10-14T04:29:13.114Z,15.23
2022-10-14T04:31:39.570Z,15.07
2022-10-14T04:34:06.085Z,22.88
2022-10-14T04:36:32.517Z,16.88
2022-10-14T04:38:59.437Z,17.27
2022-10-14T04:41:25.971Z,17.33
2022-10-14T04:43:53.560Z,16.02
2022-10-14T04:46:20.268Z,18.60
2022-10-14T04:48:50.321Z,15.23
2022-10-14T04:51:16.767Z,15.75
2022-10-14T04:53:43.462Z,13.57
2022-10-14T04:56:09.892Z,14.68
2022-10-14T04:58:36.353Z,17.90
2022-10-14T05:01:02.865Z,17.88
2022-10-14T05:03:29.360Z,15.23
2022-10-14T05:05:55.854Z,15.82
2022-10-14T05:08:22.369Z,18.02
2022-10-14T05:10:49.342Z,14.55
2022-10-14T05:13:16.074Z,17.40
2022-10-14T05:15:43.435Z,21.83
2022-10-14T05:18:13.121Z,16.92
2022-10-14T05:20:39.814Z,23.45
2022-10-14T05:23:08.983Z,17.83
2022-10-14T05:25:35.487Z,19.05
2022-10-14T05:28:02.072Z,14.40
2022-10-14T05:30:33.683Z,18.08
2022-10-14T05:33:01.079Z,17.75
2022-10-14T05:35:53.693Z,15.88
2022-10-14T05:38:16.118Z,22.13
2022-10-14T05:40:43.704Z,14.25
2022-10-14T05:43:10.178Z,14.45
2022-10-14T05:45:36.672Z,17.13
2022-10-14T05:48:03.134Z,15.80
2022-10-14T05:50:32.557Z,19.35
2022-10-14T05:53:01.617Z,17.40
2022-10-14T05:55:28.057Z,15.93
2022-10-14T05:57:58.355Z,15.45
2022-10-14T06:00:26.409Z,17.13
2022-10-14T06:02:52.961Z,16.55
2022-10-14T06:05:19.401Z,14.32
2022-10-14T06:07:46.473Z,19.23
2022-10-14T06:10:12.961Z,15.43
2022-10-14T06:12:39.517Z,15.40
2022-10-14T06:15:06.643Z,15.40
2022-10-14T06:17:33.233Z,16.10
2022-10-14T06:19:59.846Z,20.42
2022-10-14T06:22:26.350Z,18.05
2022-10-14T06:24:52.788Z,17.90
2022-10-14T06:27:19.426Z,14.05
2022-10-14T06:29:48.470Z,17.23
2022-10-14T06:32:14.975Z,15.75
2022-10-14T06:34:41.487Z,19.38
2022-10-14T06:37:08.063Z,13.63
2022-10-14T06:39:34.561Z,15.40
2022-10-14T06:42:02.533Z,21.20
2022-10-14T06:44:29.170Z,20.90
2022-10-14T06:46:55.601Z,19.10
2022-10-14T06:49:22.183Z,17.45
2022-10-14T06:51:48.890Z,15.57
2022-10-14T06:54:16.437Z,19.10
2022-10-14T06:56:42.971Z,19.10
2022-10-14T06:59:09.465Z,19.10
2022-10-14T07:01:36.011Z,18.65
2022-10-14T07:04:04.252Z,21.17
2022-10-14T07:06:30.960Z,14.85
2022-10-14T07:08:57.453Z,13.50
2022-10-14T07:11:23.930Z,16.20
2022-10-14T07:13:50.501Z,17.65
2022-10-14T07:16:16.942Z,15.25
2022-10-14T07:18:43.870Z,20.10
2022-10-14T07:21:10.480Z,13.48
2022-10-14T07:23:36.934Z,13.40
2022-10-14T07:26:03.574Z,12.88
2022-10-14T07:28:30.258Z,18.35
2022-10-14T07:31:00.849Z,20.05
2022-10-14T07:33:27.326Z,19.20
2022-10-14T07:35:54.655Z,15.02
2022-10-14T07:38:21.144Z,18.13
2022-10-14T07:40:57.864Z,21.83
2022-10-14T07:43:24.301Z,17.17
2022-10-14T07:45:51.467Z,16.88
2022-10-14T07:48:27.306Z,19.25
2022-10-14T07:50:59.570Z,18.08
2022-10-14T07:53:27.530Z,20.27
2022-10-14T07:55:57.350Z,16.02
2022-10-14T07:58:26.414Z,17.08
2022-10-14T08:00:53.776Z,21.67
2022-10-14T08:03:20.902Z,23.92
2022-10-14T08:05:48.007Z,15.18
2022-10-14T08:08:14.716Z,21.17
2022-10-14T08:10:41.756Z,17.48
2022-10-14T08:13:08.303Z,19.17
2022-10-14T08:15:40.857Z,13.63
2022-10-14T08:18:08.552Z,22.60
2022-10-14T08:20:35.106Z,14.48
2022-10-14T08:23:02.639Z,26.67
2022-10-14T08:25:29.275Z,14.68
2022-10-14T08:27:57.753Z,15.90
2022-10-14T08:30:25.310Z,25.80
2022-10-14T08:32:51.767Z,19.60
2022-10-14T08:35:18.204Z,20.42
2022-10-14T08:37:44.690Z,15.60
2022-10-14T08:40:15.697Z,18.70
2022-10-14T08:42:49.067Z,14.60
2022-10-14T08:45:19.415Z,18.30
2022-10-14T08:47:46.913Z,17.40
2022-10-14T08:50:31.589Z,17.00
2022-10-14T08:53:04.869Z,19.67
2022-10-14T08:55:41.945Z,17.08
2022-10-14T09:01:34.869Z,15.70
2022-10-14T09:04:13.369Z,21.02
2022-10-14T09:06:41.734Z,18.23
2022-10-14T09:09:33.748Z,18.15
2022-10-14T09:12:04.650Z,18.92
2022-10-14T09:14:36.909Z,17.05
2022-10-14T09:17:08.681Z,18.63
2022-10-14T09:19:41.582Z,12.18
2022-10-14T09:22:14.395Z,17.40
2022-10-14T09:24:44.526Z,18.90
2022-10-14T09:27:16.563Z,18.10
2022-10-14T09:29:52.346Z,13.60
2022-10-14T09:32:29.216Z,14.55
2022-10-14T09:34:56.896Z,16.80
2022-10-14T09:37:34.784Z,14.45
2022-10-14T09:40:08.921Z,18.98
2022-10-14T09:43:04.408Z,14.20
2022-10-14T09:45:59.346Z,13.95
2022-10-14T09:48:39.239Z,18.55
2022-10-14T09:51:11.128Z,14.55
2022-10-14T09:53:42.385Z,16.27
2022-10-14T09:56:10.379Z,14.23
2022-10-14T09:58:43.709Z,11.93
2022-10-14T10:01:19.194Z,14.00
2022-10-14T10:03:46.453Z,14.15
2022-10-14T10:06:16.591Z,15.77
2022-10-14T10:09:03.364Z,20.55
2022-10-14T10:11:37.894Z,17.80
2022-10-14T10:14:26.202Z,15.73
2022-10-14T10:17:19.397Z,18.58
2022-10-14T10:19:52.558Z,18.92
2022-10-14T10:22:26.418Z,14.07
2022-10-14T10:25:13.913Z,20.20
2022-10-14T10:27:45.759Z,16.23
2022-10-14T10:30:18.869Z,14.25
2022-10-14T10:32:54.951Z,21.52
2022-10-14T10:35:29.876Z,17.05
2022-10-14T10:38:20.659Z,17.83
2022-10-14T10:41:04.095Z,17.95
2022-10-14T10:43:42.928Z,18.30
2022-10-14T10:46:21.733Z,20.02
2022-10-14T10:49:17.694Z,20.33
2022-10-14T10:52:18.814Z,16.13
2022-10-14T10:55:03.675Z,17.15
2022-10-14T10:57:52.459Z,15.02
2022-10-14T11:00:22.718Z,19.17
2022-10-14T11:02:55.294Z,20.55
2022-10-14T11:05:45.277Z,16.50
2022-10-14T11:08:46.784Z,14.88
2022-10-14T11:11:43.568Z,14.93
2022-10-14T11:14:21.511Z,16.02
2022-10-14T11:17:03.315Z,19.40
2022-10-14T11:19:37.729Z,16.63
2022-10-14T11:22:04.713Z,15.07
2022-10-14T11:24:39.924Z,16.90
2022-10-14T11:27:24.897Z,17.35
2022-10-14T11:30:01.839Z,15.73
2022-10-14T11:32:53.671Z,14.85
2022-10-14T11:35:25.196Z,17.25
2022-10-14T11:38:05.510Z,13.00
2022-10-14T11:40:40.823Z,16.85
2022-10-14T11:43:13.681Z,13.43
2022-10-14T11:45:46.832Z,9.98
2022-10-14T11:48:34.356Z,14.43
2022-10-14T11:51:35.919Z,14.02
2022-10-14T11:54:19.129Z,20.05
2022-10-14T11:56:59.224Z,15.10
2022-10-14T11:59:31.997Z,14.73
2022-10-14T12:02:03.731Z,18.65
2022-10-14T12:04:37.625Z,12.73
2022-10-14T12:07:14.914Z,15.90
2022-10-14T12:10:06.075Z,15.32
2022-10-14T12:12:35.942Z,15.65
2022-10-14T12:15:07.071Z,19.80
2022-10-14T12:17:42.860Z,13.68
2022-10-14T12:20:30.682Z,13.68
2022-10-14T12:22:57.900Z,16.90
2022-10-14T12:25:27.407Z,17.05
2022-10-14T12:27:55.428Z,12.52
2022-10-14T12:30:38.464Z,15.32
2022-10-14T12:33:06.450Z,15.63
2022-10-14T13:02:38.752Z,13.05
2022-10-14T13:05:07.686Z,12.63
2022-10-14T13:07:47.352Z,11.68
2022-10-14T13:10:46.206Z,9.27
2022-10-14T13:13:38.917Z,11.90
2022-10-14T13:16:06.574Z,12.93
2022-10-14T13:18:38.780Z,10.38
2022-10-14T13:21:07.949Z,11.38
2022-10-14T13:23:38.723Z,7.78
2022-10-14T13:26:20.918Z,8.38
2022-10-14T13:28:58.238Z,12.27
2022-10-14T13:31:33.999Z,8.55
2022-10-14T13:34:26.474Z,9.85
2022-10-14T13:37:14.947Z,7.72
2022-10-14T13:39:41.413Z,6.68
2022-10-14T13:42:16.392Z,11.88
2022-10-14T13:44:43.851Z,11.13
2022-10-14T13:47:13.327Z,8.82
2022-10-14T13:49:40.805Z,9.32
2022-10-14T13:52:15.615Z,12.20
2022-10-14T13:54:43.004Z,10.00
2022-10-14T14:02:53.334Z,8.77
2022-10-14T14:05:21.931Z,14.10
2022-10-14T14:10:51.558Z,5.65
2022-10-14T14:13:24.630Z,5.95
2022-10-14T14:15:52.554Z,5.45
2022-10-14T14:18:56.065Z,7.70
2022-10-14T14:21:29.028Z,6.28
2022-10-14T14:24:00.666Z,9.63
2022-10-14T14:26:36.068Z,7.53
2022-10-14T14:29:24.010Z,4.85
2022-10-14T14:32:06.231Z,5.30
2022-10-14T14:34:35.072Z,7.38
2022-10-14T14:37:16.612Z,5.88
2022-10-14T14:40:03.323Z,6.32
2022-10-14T14:42:39.288Z,6.82
2022-10-14T14:45:12.829Z,7.55
2022-10-14T14:47:40.989Z,8.27
2022-10-14T14:50:29.590Z,5.82
2022-10-14T14:53:01.843Z,6.75
2022-10-14T14:55:35.915Z,6.68
2022-10-14T14:58:08.028Z,6.40
2022-10-14T15:00:35.457Z,6.85
2022-10-14T15:03:03.115Z,6.00
2022-10-14T15:05:31.035Z,6.72
2022-10-14T15:07:57.626Z,8.55
2022-10-14T15:10:26.899Z,5.22
2022-10-14T15:12:56.093Z,11.30
2022-10-14T15:15:42.803Z,6.93
2022-10-14T15:18:17.027Z,6.65
2022-10-14T15:20:43.714Z,7.10
2022-10-14T15:23:48.102Z,8.93
2022-10-14T15:26:36.904Z,6.50
2022-10-14T15:29:15.728Z,5.57
2022-10-14T15:32:02.474Z,4.82
2022-10-14T15:34:31.599Z,5.65
2022-10-14T15:36:58.027Z,4.78
2022-10-14T15:39:24.553Z,6.30
2022-10-14T15:41:51.112Z,5.28
2022-10-14T15:44:17.662Z,4.07
2022-10-14T15:47:04.084Z,4.72
2022-10-14T15:49:41.603Z,4.97
2022-10-14T15:52:14.081Z,4.82
2022-10-14T15:54:40.512Z,5.15
2022-10-14T15:57:08.244Z,6.50
2022-10-14T15:59:36.658Z,5.00
2022-10-14T16:02:11.786Z,5.85
2022-10-14T16:04:45.361Z,6.15
2022-10-14T16:07:21.672Z,4.40
2022-10-14T16:09:50.137Z,5.50
2022-10-14T16:12:16.799Z,7.32
2022-10-14T16:14:43.280Z,8.48
2022-10-14T16:17:11.183Z,5.80
2022-10-14T16:19:38.329Z,5.43
2022-10-14T16:22:04.763Z,5.72
2022-10-14T16:24:31.218Z,4.57
2022-10-14T16:26:57.652Z,5.05
2022-10-14T16:29:24.123Z,5.03
2022-10-14T16:31:52.114Z,4.93
2022-10-14T16:34:20.966Z,5.47
2022-10-14T16:36:48.889Z,6.68
2022-10-14T16:39:16.390Z,5.93
2022-10-14T16:41:43.326Z,4.35
2022-10-14T16:44:25.170Z,4.43
2022-10-14T16:47:14.088Z,6.75
2022-10-14T16:49:40.837Z,8.50
2022-10-14T16:52:08.857Z,4.57
2022-10-14T16:54:35.466Z,8.00
2022-10-14T16:57:03.389Z,4.85
2022-10-14T16:59:30.717Z,4.40
2022-10-14T17:01:57.285Z,4.22
2022-10-14T17:04:24.159Z,7.28
2022-10-14T17:06:51.073Z,6.15
2022-10-14T17:09:18.474Z,6.85
2022-10-14T17:11:46.162Z,7.25
2022-10-14T17:14:15.337Z,6.18
2022-10-14T17:16:42.436Z,8.68
2022-10-14T17:19:09.047Z,5.88
2022-10-14T17:21:35.496Z,6.88
2022-10-14T17:24:02.219Z,4.32
2022-10-14T17:26:30.620Z,4.65
2022-10-14T17:28:57.695Z,4.35
2022-10-14T17:31:25.449Z,5.68
2022-10-14T17:33:53.496Z,5.30
2022-10-14T17:36:28.413Z,5.75
2022-10-14T17:38:55.672Z,9.68
2022-10-14T17:41:23.580Z,6.20
2022-10-14T17:43:54.313Z,5.35
2022-10-14T17:46:23.569Z,5.10
2022-10-14T17:48:51.870Z,5.53
2022-10-14T17:51:18.526Z,6.07
2022-10-14T17:53:45.052Z,5.68
2022-10-14T17:56:12.724Z,5.07
2022-10-14T17:58:39.826Z,6.32
2022-10-14T18:01:15.904Z,4.63
2022-10-14T18:03:44.162Z,5.30
2022-10-14T18:06:15.648Z,6.38
2022-10-14T18:08:43.728Z,10.73
2022-10-14T18:11:11.373Z,4.80
2022-10-14T18:16:33.521Z,4.95
2022-10-14T18:19:09.215Z,7.05
2022-10-14T18:21:37.632Z,6.45
2022-10-14T18:24:05.032Z,5.50
2022-10-14T18:26:31.765Z,5.80
2022-10-14T18:29:00.954Z,5.85
2022-10-14T18:31:30.558Z,5.15
2022-10-14T18:33:59.878Z,5.20
2022-10-14T18:36:29.086Z,8.70
2022-10-14T18:38:57.239Z,5.38
2022-10-14T18:41:24.579Z,7.55
2022-10-14T18:43:51.603Z,9.70
2022-10-14T18:46:22.665Z,5.13
2022-10-14T18:48:52.270Z,4.95
2022-10-14T18:51:27.156Z,5.03
2022-10-14T18:54:14.943Z,5.53
2022-10-14T18:56:41.801Z,6.25
2022-10-14T18:59:16.429Z,4.60
2022-10-14T19:01:46.922Z,6.53
2022-10-14T19:04:15.081Z,5.95
2022-10-14T19:06:45.929Z,7.00
2022-10-14T19:09:16.322Z,5.90
2022-10-14T19:11:43.017Z,5.13
2022-10-14T19:14:10.010Z,4.80
2022-10-14T19:16:39.283Z,4.93
2022-10-14T19:19:15.207Z,5.38
2022-10-14T19:21:41.758Z,4.32
2022-10-14T19:24:08.419Z,5.80
2022-10-14T19:26:37.356Z,5.07
2022-10-14T19:29:09.029Z,5.30
2022-10-14T19:31:38.544Z,8.32
2022-10-14T19:34:06.917Z,4.70
2022-10-14T19:36:35.682Z,5.25
2022-10-14T19:39:02.752Z,7.07
2022-10-14T19:41:35.337Z,4.78
2022-10-14T19:44:01.836Z,5.22
2022-10-14T19:46:29.203Z,6.15
2022-10-14T19:48:57.404Z,6.93
2022-10-14T19:51:24.315Z,5.10
2022-10-14T19:53:50.819Z,4.85
2022-10-14T19:56:18.149Z,8.32
2022-10-14T19:58:45.081Z,5.88
2022-10-14T20:01:14.052Z,5.43
2022-10-14T20:03:41.090Z,5.35
2022-10-14T20:06:08.121Z,5.18
2022-10-14T20:08:35.217Z,5.05
2022-10-14T20:11:04.370Z,6.32
2022-10-14T20:13:30.819Z,4.80
2022-10-14T20:15:59.543Z,5.40
2022-10-14T20:18:27.601Z,5.68
2022-10-14T20:20:54.438Z,5.65
2022-10-14T20:23:20.898Z,4.20
2022-10-14T20:25:47.638Z,5.20
2022-10-14T20:28:15.727Z,6.03
2022-10-14T20:30:42.690Z,5.28
2022-10-14T20:33:09.602Z,4.25
2022-10-14T20:35:36.571Z,5.03
2022-10-14T20:38:03.644Z,4.90
2022-10-14T20:40:30.715Z,6.55
2022-10-14T20:42:57.582Z,5.05
2022-10-14T20:45:24.087Z,5.30
2022-10-14T20:47:53.549Z,7.40
2022-10-14T20:50:22.386Z,5.38
2022-10-14T20:52:49.112Z,5.20
2022-10-14T20:55:16.399Z,4.55
2022-10-14T20:57:42.826Z,5.95
2022-10-14T21:00:10.018Z,7.45
2022-10-14T21:02:37.428Z,11.60
2022-10-14T21:05:04.152Z,5.95
2022-10-14T21:07:30.656Z,8.00
2022-10-14T21:09:57.431Z,13.15
2022-10-14T21:12:24.176Z,6.60
2022-10-14T21:14:50.866Z,8.13
2022-10-14T21:17:17.349Z,7.68
2022-10-14T21:19:43.847Z,6.50
2022-10-14T21:22:10.338Z,7.68
2022-10-14T21:24:41.679Z,7.78
2022-10-14T21:27:08.504Z,7.15
2022-10-14T21:29:37.977Z,13.05
2022-10-14T21:32:04.849Z,8.30
2022-10-14T21:34:31.340Z,9.70
2022-10-14T21:36:57.981Z,11.45
2022-10-14T21:39:24.579Z,10.18
2022-10-14T21:41:52.568Z,8.82
2022-10-14T21:44:20.548Z,10.07
2022-10-14T21:46:47.754Z,10.60
2022-10-14T21:49:15.009Z,8.65
2022-10-14T21:51:41.817Z,10.98
2022-10-14T21:54:13.454Z,10.25
2022-10-14T21:56:40.035Z,8.98
2022-10-14T21:59:07.110Z,14.43
2022-10-14T22:01:34.482Z,9.45
2022-10-14T22:04:06.328Z,9.40
2022-10-14T22:06:34.479Z,10.32
2022-10-14T22:09:03.677Z,9.48
2022-10-14T22:11:31.351Z,11.05
2022-10-14T22:14:01.863Z,11.45
2022-10-14T22:16:29.394Z,11.10
2022-10-14T22:18:58.931Z,11.38
2022-10-14T22:21:26.799Z,10.98
2022-10-14T22:23:53.435Z,10.95
2022-10-14T22:26:23.099Z,10.35
2022-10-14T22:28:51.552Z,14.43
2022-10-14T22:31:20.725Z,12.25
2022-10-14T22:33:47.765Z,13.20
2022-10-14T22:36:20.863Z,15.27
2022-10-14T22:38:51.487Z,12.70
2022-10-14T22:41:18.479Z,12.85
2022-10-14T22:43:49.982Z,12.75
2022-10-14T22:46:20.177Z,16.25
2022-10-14T22:48:48.180Z,13.20
2022-10-14T22:51:17.040Z,14.50
2022-10-14T22:53:47.603Z,12.77
2022-10-14T22:56:18.950Z,13.65
2022-10-14T22:58:45.530Z,15.52
2022-10-14T23:01:14.185Z,15.25
2022-10-14T23:03:41.433Z,14.60
2022-10-14T23:06:10.468Z,15.48
2022-10-14T23:08:37.152Z,13.70
2022-10-14T23:11:04.830Z,20.13
2022-10-14T23:13:32.065Z,13.55
2022-10-14T23:16:06.410Z,13.65
2022-10-14T23:18:36.219Z,15.30
2022-10-14T23:21:19.142Z,13.73
2022-10-14T23:23:46.531Z,14.52
2022-10-14T23:26:18.038Z,13.45
2022-10-14T23:28:48.707Z,13.85
2022-10-14T23:31:18.053Z,17.83
2022-10-14T23:33:45.003Z,13.73
2022-10-14T23:36:14.360Z,15.75
2022-10-14T23:38:43.657Z,13.98
2022-10-14T23:41:15.717Z,16.25
2022-10-14T23:43:43.347Z,14.60
2022-10-14T23:46:09.789Z,15.10
2022-10-14T23:48:36.426Z,13.32
2022-10-14T23:51:03.257Z,13.95
2022-10-14T23:53:29.716Z,13.60
2022-10-14T23:55:56.676Z,14.25
2022-10-14T23:58:24.598Z,15.43
